Grand Princess — ZCBU5 — position and weather

sailwx.info

Track history (hours):
 
Tides and Currents Weather Stations Pressure Air Temp Water Temp Dewpoint Dewpoint Depression Visibility Wind Speed Wind Dir Waves Ship Positions

Grand Princess

Operator: Princess Cruises

Last reported at 2016-Oct-01 03:00 UTC. Time now 2016-Oct-01 08:42 UTC.
Position N 20°00' W 105°36'.

Length 289.5 m; beam 36 m; draft 8.5 m.

Type: Ship. MMSI: 310327000.

Wind from 330 at 8 knots

Barometer 1012.3 mb
Air temperature 30.0 ° C
Visibility: greater than 27.0 NM
Dewpoint 25.1 ° C
Water temperature 31.0 ° C

Date/timePositionNaut miles runAvg speedWind from/ knotsBaromVisibWave heightAir tempDewpointWater temp
2016-Oct-01 03:00N 20°00' W 105°36'223 4.5 330 / 81012.327.0 30.025.131.0
2016-Sep-29 01:00N 22°12' W 108°48'14017.5 200 / 51010.110.8 0.528.023.730.0
2016-Sep-28 17:00N 23°30' W 110°54'23416.7 140 / 61011.710.8 1.526.024.628.0
2016-Sep-28 03:00N 26°12' W 114°00'15715.7 280 / 81009.927.0 2.023.019.921.0
2016-Sep-27 17:00N 28°12' W 115°54'46016.4 180 / 91012.1 5.4 1.020.019.221.0
2016-Sep-26 13:00N 34°30' W 121°00'8318.7 010 / 151013.127.0 0.517.016.217.0
2016-Sep-26 08:33N 35°44' W 121°47'3814.6
2016-Sep-26 06:00N 36°18' W 122°06'6017.5 360 / 51015.127.0 17.514.915.0
2016-Sep-26 02:34N 37°12' W 122°39'1616.0
2016-Sep-26 01:33N 37°27' W 122°43'1515.4
2016-Sep-26 00:33N 37°43' W 122°42'15 5.0
2016-Sep-25 21:32N 37°48' W 122°24'0 0.0
2016-Sep-25 17:30N 37°48' W 122°24'0 0.0
2016-Sep-25 16:33N 37°48' W 122°24'0 0.0
2016-Sep-25 15:32N 37°48' W 122°24'0 0.0
2016-Sep-25 14:32N 37°48' W 122°24'6 2.9
2016-Sep-25 12:34N 37°48' W 122°31'1212.0
2016-Sep-25 11:34N 37°38' W 122°40'1515.2
2016-Sep-25 10:34N 37°23' W 122°40'1212.0
2016-Sep-25 09:33N 37°11' W 122°36'2311.7
2016-Sep-25 07:34N 36°50' W 122°24'3411.4
2016-Sep-25 04:33N 36°19' W 122°06'5614.1
2016-Sep-25 00:33N 35°28' W 121°37'2512.4
2016-Sep-24 22:33N 35°06' W 121°23'1211.5
2016-Sep-24 21:33N 34°56' W 121°17'2411.8
2016-Sep-24 19:33N 34°35' W 121°03'1211.7
2016-Sep-24 18:33N 34°24' W 120°56'1212.2
2016-Sep-24 17:33N 34°14' W 120°48'1211.7
2016-Sep-24 16:33N 34°04' W 120°42'2511.6
2016-Sep-24 14:23N 33°49' W 120°17'2413.0
2016-Sep-24 12:33N 33°39' W 119°51'3115.4
2016-Sep-24 10:33N 33°26' W 119°18'1716.9
2016-Sep-24 09:33N 33°18' W 119°00'10116.8
2016-Sep-24 03:33N 32°19' W 117°23'1918.7
2016-Sep-24 02:33N 32°07' W 117°07'23 1.0
2016-Sep-23 02:23N 32°27' W 117°20'810.2
2016-Sep-23 01:33N 32°35' W 117°15'9 8.8
2016-Sep-23 00:34N 32°43' W 117°12'1 0.9
2016-Sep-22 23:33N 32°43' W 117°10'0 0.0
2016-Sep-22 20:32N 32°43' W 117°10'19 2.4
2016-Sep-22 12:33N 32°26' W 117°20'40 7.2
2016-Sep-22 07:00N 32°54' W 117°54'22 9.0 270 / 81011.527.0 19.018.221.0
2016-Sep-22 04:33N 33°14' W 118°04'10 9.7
2016-Sep-22 03:33N 33°23' W 118°08'22 7.1
2016-Sep-22 00:28N 33°45' W 118°11'40 2.5
2016-Sep-21 08:19N 33°43' W 118°59'20 7.2
2016-Sep-21 05:33N 34°00' W 119°12'18 9.2
2016-Sep-21 03:33N 34°06' W 119°32'  
Track history (hours):
 
Tides and Currents Weather Stations Pressure Air Temp Water Temp Dewpoint Dewpoint Depression Visibility Wind Speed Wind Dir Waves Ship Positions

Grand Princess

Operator: Princess Cruises

Last reported at 2016-Oct-01 03:00 UTC. Time now 2016-Oct-01 08:42 UTC.
Position N 20°00' W 105°36'.

Length 289.5 m; beam 36 m; draft 8.5 m.

Type: Ship. MMSI: 310327000.

Wind from 330 at 8 knots

Barometer 1012.3 mb
Air temperature 30.0 ° C
Visibility: greater than 27.0 NM
Dewpoint 25.1 ° C
Water temperature 31.0 ° C

Date/timePositionNaut miles runAvg speedWind from/ knotsBaromVisibWave heightAir tempDewpointWater temp
2016-Oct-01 03:00N 20°00' W 105°36'223 4.5 330 / 81012.327.0 30.025.131.0
2016-Sep-29 01:00N 22°12' W 108°48'14017.5 200 / 51010.110.8 0.528.023.730.0
2016-Sep-28 17:00N 23°30' W 110°54'23416.7 140 / 61011.710.8 1.526.024.628.0
2016-Sep-28 03:00N 26°12' W 114°00'15715.7 280 / 81009.927.0 2.023.019.921.0
2016-Sep-27 17:00N 28°12' W 115°54'46016.4 180 / 91012.1 5.4 1.020.019.221.0
2016-Sep-26 13:00N 34°30' W 121°00'8318.7 010 / 151013.127.0 0.517.016.217.0
2016-Sep-26 08:33N 35°44' W 121°47'3814.6
2016-Sep-26 06:00N 36°18' W 122°06'6017.5 360 / 51015.127.0 17.514.915.0
2016-Sep-26 02:34N 37°12' W 122°39'1616.0
2016-Sep-26 01:33N 37°27' W 122°43'1515.4
2016-Sep-26 00:33N 37°43' W 122°42'15 5.0
2016-Sep-25 21:32N 37°48' W 122°24'0 0.0
2016-Sep-25 17:30N 37°48' W 122°24'0 0.0
2016-Sep-25 16:33N 37°48' W 122°24'0 0.0
2016-Sep-25 15:32N 37°48' W 122°24'0 0.0
2016-Sep-25 14:32N 37°48' W 122°24'6 2.9
2016-Sep-25 12:34N 37°48' W 122°31'1212.0
2016-Sep-25 11:34N 37°38' W 122°40'1515.2
2016-Sep-25 10:34N 37°23' W 122°40'1212.0
2016-Sep-25 09:33N 37°11' W 122°36'2311.7
2016-Sep-25 07:34N 36°50' W 122°24'3411.4
2016-Sep-25 04:33N 36°19' W 122°06'5614.1
2016-Sep-25 00:33N 35°28' W 121°37'2512.4
2016-Sep-24 22:33N 35°06' W 121°23'1211.5
2016-Sep-24 21:33N 34°56' W 121°17'2411.8
2016-Sep-24 19:33N 34°35' W 121°03'1211.7
2016-Sep-24 18:33N 34°24' W 120°56'1212.2
2016-Sep-24 17:33N 34°14' W 120°48'1211.7
2016-Sep-24 16:33N 34°04' W 120°42'2511.6
2016-Sep-24 14:23N 33°49' W 120°17'2413.0
2016-Sep-24 12:33N 33°39' W 119°51'3115.4
2016-Sep-24 10:33N 33°26' W 119°18'1716.9
2016-Sep-24 09:33N 33°18' W 119°00'10116.8
2016-Sep-24 03:33N 32°19' W 117°23'1918.7
2016-Sep-24 02:33N 32°07' W 117°07'23 1.0
2016-Sep-23 02:23N 32°27' W 117°20'810.2
2016-Sep-23 01:33N 32°35' W 117°15'9 8.8
2016-Sep-23 00:34N 32°43' W 117°12'1 0.9
2016-Sep-22 23:33N 32°43' W 117°10'0 0.0
2016-Sep-22 20:32N 32°43' W 117°10'19 2.4
2016-Sep-22 12:33N 32°26' W 117°20'40 7.2
2016-Sep-22 07:00N 32°54' W 117°54'22 9.0 270 / 81011.527.0 19.018.221.0
2016-Sep-22 04:33N 33°14' W 118°04'10 9.7
2016-Sep-22 03:33N 33°23' W 118°08'22 7.1
2016-Sep-22 00:28N 33°45' W 118°11'40 2.5
2016-Sep-21 08:19N 33°43' W 118°59'20 7.2
2016-Sep-21 05:33N 34°00' W 119°12'18 9.2
2016-Sep-21 03:33N 34°06' W 119°32'  

Dump ship's entire track history